Time;durP1;ratioP1;P1;durP2;ratioP2;P2;SDS_P1;SDS_P2;PMS_P1;PMS_P2;Temp;Humidity;BMP_temperature;BMP_pressure;BME280_temperature;BME280_humidity;BME280_pressure;Samples;Min_cycle;Max_cycle;Signal;HPM_P1;HPM_P2
2024/01/10 00:02:39;;;;;;;23.27;15.70;;;-2.80;99.90;;;;;;6273429;22;20042;-96
2024/01/10 00:05:33;;;;;;;21.23;14.32;;;-3.90;99.90;;;;;;6263020;22;20081;-96
2024/01/10 00:08:15;;;;;;;21.88;14.25;;;-4.80;99.90;;;;;;6283035;22;20020;-96
2024/01/10 00:10:41;;;;;;;24.30;15.43;;;-3.70;99.90;;;;;;6260264;22;20148;-96
2024/01/10 00:13:07;;;;;;;23.87;14.33;;;-2.80;99.90;;;;;;6259281;22;20019;-96
2024/01/10 00:15:33;;;;;;;21.77;14.90;;;-2.30;99.90;;;;;;6234508;22;20257;-96
2024/01/10 00:17:59;;;;;;;22.53;13.93;;;-2.90;99.90;;;;;;6259696;22;20431;-96
2024/01/10 00:20:31;;;;;;;23.15;14.10;;;-3.00;99.90;;;;;;6261075;22;20015;-96
2024/01/10 00:22:59;;;;;;;20.20;13.90;;;-2.30;99.90;;;;;;6210607;22;20015;-95
2024/01/10 00:25:28;;;;;;;24.17;14.60;;;-2.60;99.90;;;;;;6261999;22;20012;-96
2024/01/10 00:27:59;;;;;;;23.52;14.43;;;-3.70;99.90;;;;;;6235813;22;20015;-96
2024/01/10 00:30:28;;;;;;;20.45;13.43;;;-3.00;99.90;;;;;;6235564;22;20393;-94
2024/01/10 00:33:01;;;;;;;21.00;13.85;;;-3.80;99.90;;;;;;6235522;22;20487;-95
2024/01/10 00:35:27;;;;;;;20.83;13.43;;;-3.90;99.90;;;;;;6235887;22;20320;-96
2024/01/10 00:37:59;;;;;;;18.63;13.75;;;-2.60;99.90;;;;;;6260413;22;20149;-96
2024/01/10 00:40:31;;;;;;;24.17;14.25;;;-2.50;99.90;;;;;;6260004;22;20447;-95
2024/01/10 00:42:57;;;;;;;23.63;14.52;;;-3.40;99.90;;;;;;6258828;22;20022;-95
2024/01/10 00:45:27;;;;;;;20.83;13.43;;;-3.80;99.90;;;;;;6235337;22;20045;-95
2024/01/10 00:47:53;;;;;;;21.65;12.82;;;-4.30;99.90;;;;;;6234725;22;20011;-94
2024/01/10 00:50:40;;;;;;;21.33;14.32;;;-2.80;99.90;;;;;;6260413;22;20019;-96
2024/01/10 00:53:21;;;;;;;;;;;;;;;;;;;;;
2024/01/10 00:55:50;;;;;;;19.17;13.52;;;-2.30;99.90;;;;;;6275550;22;20467;-94
2024/01/10 00:58:15;;;;;;;22.77;15.05;;;-2.90;99.90;;;;;;6310174;22;20030;-96
2024/01/10 01:00:41;;;;;;;24.80;14.93;;;-3.10;99.90;;;;;;6310417;22;20051;-95
2024/01/10 01:03:09;;;;;;;24.50;16.27;;;-2.50;99.90;;;;;;6310311;22;20436;-96
2024/01/10 01:05:38;;;;;;;22.08;15.68;;;-3.00;99.90;;;;;;6310182;22;20020;-93
2024/01/10 01:08:04;;;;;;;26.75;15.95;;;-3.60;99.90;;;;;;6284357;22;20019;-93
2024/01/10 01:10:30;;;;;;;22.85;15.40;;;-4.00;99.90;;;;;;6309609;22;20038;-95
2024/01/10 01:12:56;;;;;;;22.83;14.97;;;-4.10;99.90;;;;;;6309444;22;20019;-92
2024/01/10 01:15:22;;;;;;;26.67;16.63;;;-3.00;99.90;;;;;;6310755;22;20019;-94
2024/01/10 01:17:48;;;;;;;21.33;13.93;;;-3.20;99.90;;;;;;6309840;22;20021;-94
2024/01/10 01:20:16;;;;;;;22.60;16.90;;;-3.40;99.90;;;;;;6309417;22;20012;-94
2024/01/10 01:22:51;;;;;;;20.67;14.73;;;-4.10;99.90;;;;;;6284256;22;20051;-94
2024/01/10 01:25:18;;;;;;;22.38;14.70;;;-2.60;99.90;;;;;;6284649;22;20050;-94
2024/01/10 01:27:46;;;;;;;24.50;15.10;;;-3.10;99.90;;;;;;6309348;22;20065;-94
2024/01/10 01:30:16;;;;;;;23.65;16.17;;;-3.10;99.90;;;;;;6309010;22;20431;-94
2024/01/10 01:32:47;;;;;;;22.90;14.80;;;-3.50;99.90;;;;;;6309695;22;20041;-93
2024/01/10 01:35:22;;;;;;;21.48;14.75;;;-3.40;99.90;;;;;;6282872;22;20023;-94
2024/01/10 01:38:03;;;;;;;25.15;14.77;;;-4.20;99.90;;;;;;6308564;22;20022;-93
2024/01/10 01:40:29;;;;;;;22.52;14.38;;;-5.00;99.90;;;;;;6283112;22;20011;-93
2024/01/10 01:42:55;;;;;;;25.93;15.87;;;-3.00;99.90;;;;;;6282911;22;20026;-94
2024/01/10 01:45:24;;;;;;;23.43;14.73;;;-3.10;99.90;;;;;;6308206;22;20015;-93
2024/01/10 01:47:59;;;;;;;21.02;13.98;;;-4.20;99.90;;;;;;6308499;22;20045;-93
2024/01/10 01:50:28;;;;;;;21.73;15.48;;;-3.50;99.90;;;;;;6308828;22;20019;-94
2024/01/10 01:53:03;;;;;;;25.70;16.40;;;-2.80;99.90;;;;;;6308915;22;20030;-93
2024/01/10 01:55:31;;;;;;;23.13;15.38;;;-3.90;99.90;;;;;;6284245;22;20098;-93
2024/01/10 01:58:02;;;;;;;25.23;15.63;;;-4.30;99.90;;;;;;6256905;22;20050;-93
2024/01/10 02:00:31;;;;;;;28.05;18.88;;;-3.10;99.90;;;;;;6308625;22;20022;-93
2024/01/10 02:02:58;;;;;;;25.92;17.23;;;-3.30;99.90;;;;;;6282822;22;20458;-92
2024/01/10 02:05:28;;;;;;;27.52;17.77;;;-3.00;99.90;;;;;;6307825;22;20324;-92
2024/01/10 02:07:56;;;;;;;27.38;17.30;;;-3.90;99.90;;;;;;6307993;22;20473;-93
2024/01/10 02:10:22;;;;;;;30.60;18.48;;;-4.30;99.90;;;;;;6281348;22;20519;-93
2024/01/10 02:12:48;;;;;;;26.48;17.35;;;-2.80;99.90;;;;;;6307315;22;20454;-93
2024/01/10 02:15:18;;;;;;;23.73;16.25;;;-3.00;99.90;;;;;;6306885;22;20019;-93
2024/01/10 02:17:46;;;;;;;25.17;17.17;;;-5.10;99.90;;;;;;6281997;22;20088;-93
2024/01/10 02:20:14;;;;;;;26.80;17.83;;;-3.10;99.90;;;;;;6307099;22;20053;-93
2024/01/10 02:22:40;;;;;;;27.35;16.67;;;-4.10;99.90;;;;;;6307613;22;20076;-92
2024/01/10 02:25:11;;;;;;;27.00;17.93;;;-2.90;99.90;;;;;;6306739;22;20015;-92
2024/01/10 02:27:38;;;;;;;24.70;15.85;;;-3.30;99.90;;;;;;6282511;22;20141;-93
2024/01/10 02:30:08;;;;;;;28.30;16.23;;;-3.20;99.90;;;;;;6307134;22;20065;-93
2024/01/10 02:32:37;;;;;;;30.85;17.98;;;-4.20;99.90;;;;;;6306776;22;20027;-93
2024/01/10 02:35:07;;;;;;;25.77;17.17;;;-2.80;99.90;;;;;;6307314;22;20025;-93
2024/01/10 02:37:34;;;;;;;25.92;17.65;;;-4.30;99.90;;;;;;6307693;22;20011;-93
2024/01/10 02:40:02;;;;;;;27.08;17.23;;;-3.60;99.90;;;;;;6306890;22;20075;-92
2024/01/10 02:42:30;;;;;;;24.08;18.10;;;-4.10;99.90;;;;;;6305926;22;20019;-92
2024/01/10 02:44:58;;;;;;;27.05;17.98;;;-3.50;99.90;;;;;;6281400;22;20023;-93
2024/01/10 02:47:24;;;;;;;28.58;18.35;;;-3.10;99.90;;;;;;6306272;22;20019;-93
2024/01/10 02:49:52;;;;;;;25.13;16.33;;;-3.60;99.90;;;;;;6307144;22;20015;-92
2024/01/10 02:52:20;;;;;;;25.95;18.00;;;-3.60;99.90;;;;;;6305816;22;20026;-92
2024/01/10 02:54:46;;;;;;;26.55;16.92;;;-3.10;99.90;;;;;;6280359;22;20020;-93
2024/01/10 02:57:13;;;;;;;28.63;18.07;;;-4.00;99.90;;;;;;6306060;22;20027;-93
2024/01/10 02:59:39;;;;;;;;;;;-3.20;99.90;;;;;;6307154;22;20026;-93
2024/01/10 03:02:04;;;;;;;30.10;18.40;;;-3.20;99.90;;;;;;6280870;22;19919;-93
2024/01/10 03:04:30;;;;;;;25.53;17.23;;;-3.00;99.90;;;;;;6280008;22;20053;-93
2024/01/10 03:06:59;;;;;;;27.35;17.42;;;-4.20;99.90;;;;;;6281551;22;20022;-93
2024/01/10 03:09:25;;;;;;;23.60;15.27;;;-3.20;99.90;;;;;;6279657;22;20098;-92
2024/01/10 03:11:53;;;;;;;25.07;16.47;;;-3.40;99.90;;;;;;6280107;22;20015;-93
2024/01/10 03:14:19;;;;;;;28.60;18.23;;;-3.40;99.90;;;;;;6280063;22;20026;-93
2024/01/10 03:16:47;;;;;;;30.90;18.37;;;-5.20;99.90;;;;;;6306300;22;20011;-93
2024/01/10 03:19:13;;;;;;;27.02;17.80;;;-3.20;99.90;;;;;;6305924;22;20464;-90
2024/01/10 03:21:39;;;;;;;25.67;17.67;;;-3.60;99.90;;;;;;6306566;22;20014;-93
2024/01/10 03:24:08;;;;;;;27.67;18.13;;;-5.00;99.90;;;;;;6306378;22;20094;-93
2024/01/10 03:26:37;;;;;;;29.77;17.83;;;-4.20;99.90;;;;;;6305841;22;20094;-93
2024/01/10 03:29:03;;;;;;;31.48;17.77;;;-3.10;99.90;;;;;;6306378;22;20015;-93
2024/01/10 03:31:30;;;;;;;28.00;17.27;;;-4.20;99.90;;;;;;6280092;22;20076;-93
2024/01/10 03:33:58;;;;;;;27.42;16.77;;;-4.20;99.90;;;;;;6306626;22;20049;-93
2024/01/10 03:36:25;;;;;;;26.90;16.98;;;-3.10;99.90;;;;;;6306005;22;20026;-93
2024/01/10 03:38:55;;;;;;;30.37;18.97;;;-3.60;99.90;;;;;;6306151;22;20015;-93
2024/01/10 03:41:22;;;;;;;24.30;18.13;;;-4.40;99.90;;;;;;6305520;22;20242;-94
2024/01/10 03:43:47;;;;;;;24.40;16.67;;;-4.40;99.90;;;;;;6306617;22;20057;-94
2024/01/10 03:46:19;;;;;;;27.53;17.50;;;-3.40;99.90;;;;;;6306776;22;20019;-94
2024/01/10 03:48:48;;;;;;;32.58;18.63;;;-2.90;99.90;;;;;;6306654;22;20431;-93
2024/01/10 03:51:18;;;;;;;26.67;17.55;;;-4.30;99.90;;;;;;6306880;22;20025;-93
2024/01/10 03:53:44;;;;;;;27.10;18.40;;;-4.00;99.90;;;;;;6281031;22;20335;-94
2024/01/10 03:56:12;;;;;;;33.13;18.23;;;-3.20;99.90;;;;;;6307595;22;20112;-92
2024/01/10 03:58:37;;;;;;;24.08;16.58;;;-2.90;99.90;;;;;;6307834;22;20258;-95
2024/01/10 04:01:13;;;;;;;25.73;17.10;;;-3.50;99.90;;;;;;6308739;22;20435;-95
2024/01/10 04:03:42;;;;;;;28.08;17.60;;;-3.10;99.90;;;;;;6308068;22;20015;-93
2024/01/10 04:06:08;;;;;;;29.27;18.17;;;-3.40;99.90;;;;;;6257502;22;20015;-93
2024/01/10 04:08:40;;;;;;;27.27;16.80;;;-3.10;99.90;;;;;;6307904;22;20015;-94
2024/01/10 04:11:08;;;;;;;28.85;18.15;;;-4.30;99.90;;;;;;6307799;22;20044;-94
2024/01/10 04:13:34;;;;;;;27.83;17.55;;;-3.00;99.90;;;;;;6308008;22;20023;-95
2024/01/10 04:16:00;;;;;;;27.45;17.80;;;-4.50;99.90;;;;;;6308135;22;20019;-94
2024/01/10 04:18:28;;;;;;;32.33;19.63;;;-3.50;99.90;;;;;;6281933;22;20030;-95
2024/01/10 04:21:00;;;;;;;29.27;17.77;;;-2.90;99.90;;;;;;6283519;22;20019;-95
2024/01/10 04:23:25;;;;;;;27.65;17.23;;;-3.60;99.90;;;;;;6307868;22;20163;-95
2024/01/10 04:25:51;;;;;;;26.10;17.30;;;-3.00;99.90;;;;;;6256968;22;20046;-94
2024/01/10 04:28:17;;;;;;;24.70;16.63;;;-3.20;99.90;;;;;;6283057;22;20011;-95
2024/01/10 04:30:43;;;;;;;28.43;18.83;;;-3.70;99.90;;;;;;6308261;22;20337;-94
2024/01/10 04:33:08;;;;;;;30.83;18.27;;;-3.10;99.90;;;;;;6308875;22;20072;-96
2024/01/10 04:35:34;;;;;;;29.77;19.27;;;-3.70;99.90;;;;;;6308471;22;20023;-96
2024/01/10 04:38:00;;;;;;;30.00;18.93;;;-4.30;99.90;;;;;;6309761;22;20070;-96
2024/01/10 04:40:26;;;;;;;30.70;17.93;;;-3.20;99.90;;;;;;6308375;22;20108;-95
2024/01/10 04:42:51;;;;;;;31.20;18.10;;;-3.50;99.90;;;;;;6309603;22;20155;-95
2024/01/10 04:45:17;;;;;;;29.83;20.07;;;-4.00;99.90;;;;;;6284049;22;20068;-96
2024/01/10 04:47:44;;;;;;;27.87;18.60;;;-3.30;99.90;;;;;;6283327;22;20015;-96
2024/01/10 04:50:10;;;;;;;30.02;19.27;;;-3.20;99.90;;;;;;6310818;22;20012;-96
2024/01/10 04:52:52;;;;;;;30.45;19.38;;;-3.70;99.90;;;;;;5112726;27;1458398;-96
2024/01/10 04:55:31;;;;;;;;;;;;;;;;;;;;;
2024/01/10 04:58:06;;;;;;;29.20;18.45;;;-3.40;99.90;;;;;;5116578;28;20080;-96
2024/01/10 05:00:48;;;;;;;28.52;19.38;;;-4.50;99.90;;;;;;5116650;28;20050;-96
2024/01/10 05:03:17;;;;;;;27.45;17.83;;;-3.40;99.90;;;;;;5105089;28;20035;-96
2024/01/10 05:06:08;;;;;;;28.13;19.27;;;-5.10;99.90;;;;;;5120355;28;20091;-96
2024/01/10 05:54:39;;;;;;;30.30;19.52;;;-4.70;99.90;;;;;;5168293;23;20049;-92
2024/01/10 05:57:15;;;;;;;35.60;21.48;;;-5.40;99.90;;;;;;4883528;29;20041;-96
2024/01/10 05:59:52;;;;;;;27.30;18.67;;;-3.70;99.90;;;;;;4881747;29;20098;-96
2024/01/10 06:02:32;;;;;;;31.77;20.50;;;-5.20;99.90;;;;;;4877607;29;20041;-96
2024/01/10 06:05:14;;;;;;;;;;;;;;;;;;;;;
2024/01/10 06:07:49;;;;;;;;;;;-4.80;99.90;;;;;;4864736;29;20057;-96
2024/01/10 06:10:18;;;;;;;31.13;19.52;;;-3.10;99.90;;;;;;4873739;29;20024;-95
2024/01/10 06:12:44;;;;;;;33.50;20.92;;;-4.40;99.90;;;;;;4838921;29;20045;-96
2024/01/10 06:15:10;;;;;;;28.23;20.37;;;-4.70;99.90;;;;;;4836898;29;20058;-96
2024/01/10 06:17:36;;;;;;;30.13;19.70;;;-4.70;99.90;;;;;;4804848;29;20093;-96
2024/01/10 06:20:03;;;;;;;27.30;18.95;;;-4.90;99.90;;;;;;4833541;29;20050;-96
2024/01/10 06:22:31;;;;;;;28.58;18.20;;;-4.70;99.90;;;;;;4818465;29;20466;-96
2024/01/10 06:24:57;;;;;;;33.45;20.73;;;-3.20;99.90;;;;;;4832821;29;20178;-96
2024/01/10 06:27:23;;;;;;;29.30;18.83;;;-3.30;99.90;;;;;;4817321;29;20497;-95
2024/01/10 06:29:49;;;;;;;32.83;19.57;;;-3.50;99.90;;;;;;4832026;29;20058;-96
2024/01/10 06:32:15;;;;;;;30.80;20.00;;;-4.90;99.90;;;;;;4834807;29;20081;-96
2024/01/10 06:34:41;;;;;;;36.03;21.77;;;-4.00;99.90;;;;;;4815441;29;20050;-92
2024/01/10 06:37:09;;;;;;;30.35;19.85;;;-3.40;99.90;;;;;;4832054;29;20390;-95
2024/01/10 06:39:35;;;;;;;29.10;19.80;;;-4.00;99.90;;;;;;4832556;29;20046;-96
2024/01/10 06:42:03;;;;;;;34.57;21.93;;;-3.80;99.90;;;;;;4846871;29;20242;-96
2024/01/10 06:44:30;;;;;;;35.22;23.30;;;-3.90;99.90;;;;;;4865209;29;20129;-95
2024/01/10 06:46:59;;;;;;;27.88;19.75;;;-4.20;99.90;;;;;;4865767;29;20049;-95
2024/01/10 06:49:24;;;;;;;34.83;21.23;;;-4.00;99.90;;;;;;4834559;29;20050;-95
2024/01/10 06:51:50;;;;;;;32.70;19.87;;;-3.60;99.90;;;;;;4845435;29;20053;-96
2024/01/10 06:54:18;;;;;;;31.98;21.20;;;-3.60;99.90;;;;;;4861431;29;20050;-95
2024/01/10 06:56:44;;;;;;;29.90;20.35;;;-4.10;99.90;;;;;;4845633;29;20520;-93
2024/01/10 06:59:09;;;;;;;35.57;22.03;;;-3.80;99.90;;;;;;4846933;29;20068;-96
2024/01/10 07:01:35;;;;;;;34.10;23.10;;;-5.10;99.90;;;;;;4846569;29;20081;-95
2024/01/10 07:04:01;;;;;;;31.00;21.13;;;-4.90;99.90;;;;;;4846184;29;20058;-95
2024/01/10 07:06:27;;;;;;;33.10;22.07;;;-3.90;99.90;;;;;;4846468;29;20056;-96
2024/01/10 07:08:53;;;;;;;28.20;20.97;;;-5.00;99.90;;;;;;4845777;29;20078;-96
2024/01/10 07:11:21;;;;;;;29.87;19.67;;;-4.80;99.90;;;;;;4848227;29;20046;-95
2024/01/10 07:13:47;;;;;;;29.42;21.42;;;-4.70;99.90;;;;;;4864702;29;20053;-94
2024/01/10 07:16:16;;;;;;;32.27;20.50;;;-4.90;99.90;;;;;;4864665;29;20197;-95
2024/01/10 07:18:50;;;;;;;30.33;21.75;;;-5.00;99.90;;;;;;4864604;29;20049;-95
2024/01/10 07:21:16;;;;;;;32.33;21.70;;;-3.30;99.90;;;;;;4863575;29;20057;-94
2024/01/10 07:23:44;;;;;;;33.00;22.27;;;-3.60;99.90;;;;;;4863685;29;20049;-94
2024/01/10 07:26:14;;;;;;;32.88;20.13;;;-3.60;99.90;;;;;;4847851;29;20058;-93
2024/01/10 07:28:41;;;;;;;30.55;20.15;;;-5.60;99.90;;;;;;4863443;29;20124;-95
2024/01/10 07:31:07;;;;;;;28.77;21.15;;;-3.70;99.90;;;;;;4847784;29;20046;-96
2024/01/10 07:33:33;;;;;;;28.80;20.13;;;-4.80;99.90;;;;;;4863234;29;20140;-95
2024/01/10 07:36:00;;;;;;;30.77;19.90;;;-4.70;99.90;;;;;;4863051;29;20049;-94
2024/01/10 07:38:26;;;;;;;32.25;20.70;;;-3.40;99.90;;;;;;4848358;29;20057;-95
2024/01/10 07:40:51;;;;;;;30.70;19.20;;;-3.40;99.90;;;;;;4846568;29;20496;-93
2024/01/10 07:43:17;;;;;;;34.07;21.43;;;-5.10;99.90;;;;;;4848306;29;20053;-94
2024/01/10 07:45:43;;;;;;;27.53;19.57;;;-3.70;99.90;;;;;;4832824;29;20101;-95
2024/01/10 07:48:10;;;;;;;30.23;20.27;;;-3.70;99.90;;;;;;4848191;29;20094;-95
2024/01/10 07:50:36;;;;;;;35.47;21.45;;;-3.70;99.90;;;;;;4849004;29;20046;-95
2024/01/10 07:53:02;;;;;;;36.07;21.77;;;-3.40;99.90;;;;;;4848377;29;20147;-95
2024/01/10 07:55:30;;;;;;;30.47;20.70;;;-4.80;99.90;;;;;;4846501;29;20077;-95
2024/01/10 07:57:56;;;;;;;30.58;21.10;;;-3.50;99.90;;;;;;4847715;29;20136;-95
2024/01/10 08:00:22;;;;;;;28.73;18.57;;;-3.30;99.90;;;;;;4847779;29;20088;-95
2024/01/10 08:02:50;;;;;;;32.03;21.45;;;-4.70;99.90;;;;;;4848537;29;20060;-95
2024/01/10 08:05:15;;;;;;;30.80;19.05;;;-5.60;99.90;;;;;;4833317;29;20068;-95
2024/01/10 08:07:41;;;;;;;30.60;20.37;;;-3.50;99.90;;;;;;4863723;29;20045;-94
2024/01/10 08:10:09;;;;;;;32.27;20.30;;;-4.10;99.90;;;;;;4843173;29;20077;-94
2024/01/10 08:12:36;;;;;;;30.48;18.98;;;-4.80;99.90;;;;;;4829863;29;20115;-95
2024/01/10 08:15:02;;;;;;;;;;;-3.20;99.90;;;;;;4845000;29;20080;-94
2024/01/10 08:17:28;;;;;;;31.00;19.30;;;-3.50;99.90;;;;;;4830108;29;19975;-95
2024/01/10 08:19:53;;;;;;;27.70;18.07;;;-3.50;99.90;;;;;;4829984;29;20552;-91
2024/01/10 08:22:23;;;;;;;28.57;17.67;;;-3.90;99.90;;;;;;4829473;29;20525;-95
2024/01/10 08:24:48;;;;;;;30.73;18.70;;;-3.20;99.90;;;;;;4844804;29;20042;-96
2024/01/10 08:27:14;;;;;;;27.47;16.77;;;-3.40;99.90;;;;;;4829385;29;20050;-95
2024/01/10 08:29:40;;;;;;;27.97;18.10;;;-3.60;99.90;;;;;;4814801;29;20058;-96
2024/01/10 08:32:06;;;;;;;26.37;18.50;;;-3.10;99.90;;;;;;4829183;29;20050;-95
2024/01/10 08:34:31;;;;;;;27.93;17.97;;;-4.50;99.90;;;;;;4814498;29;20061;-96
2024/01/10 08:36:57;;;;;;;29.00;17.63;;;-3.50;99.90;;;;;;4814759;29;20046;-91
2024/01/10 08:39:25;;;;;;;26.53;17.97;;;-3.40;99.90;;;;;;4830344;29;20077;-95
2024/01/10 08:41:52;;;;;;;27.88;17.30;;;-3.80;99.90;;;;;;4860938;29;20061;-96
2024/01/10 08:44:18;;;;;;;24.58;17.50;;;-2.50;99.90;;;;;;4848064;29;20045;-96
2024/01/10 08:46:44;;;;;;;28.95;16.25;;;-2.10;99.90;;;;;;4848497;29;20089;-96
2024/01/10 08:49:10;;;;;;;23.37;15.50;;;-1.70;99.90;;;;;;4848181;29;20054;-96
2024/01/10 08:51:38;;;;;;;26.63;16.30;;;-1.40;99.90;;;;;;4848084;29;20405;-96
2024/01/10 08:54:06;;;;;;;27.98;17.65;;;-1.30;99.90;;;;;;4848301;29;20157;-96
2024/01/10 08:56:32;;;;;;;26.85;16.10;;;-3.00;99.90;;;;;;4848064;29;20062;-95
2024/01/10 08:58:58;;;;;;;24.80;16.63;;;-1.60;99.90;;;;;;4863732;29;20054;-95
2024/01/10 09:01:27;;;;;;;26.42;15.82;;;-2.50;99.90;;;;;;4848503;29;20466;-96
2024/01/10 09:03:52;;;;;;;27.73;17.03;;;-2.10;99.90;;;;;;4847881;29;20054;-96
2024/01/10 09:06:18;;;;;;;27.37;15.47;;;-2.10;99.90;;;;;;4848074;29;20060;-96
2024/01/10 09:08:44;;;;;;;25.67;15.53;;;-1.50;99.90;;;;;;4848205;29;20045;-96
2024/01/10 09:11:10;;;;;;;27.17;16.10;;;-2.80;99.90;;;;;;4861732;29;20053;-96
2024/01/10 09:13:37;;;;;;;27.57;16.90;;;-1.70;99.90;;;;;;4863742;29;20078;-94
2024/01/10 09:16:04;;;;;;;28.00;15.07;;;-2.80;99.90;;;;;;4847814;29;20053;-93
2024/01/10 09:18:29;;;;;;;28.27;17.35;;;-2.60;99.90;;;;;;4863199;29;20076;-96
2024/01/10 09:20:58;;;;;;;27.57;15.97;;;-1.40;99.10;;;;;;4848312;29;20053;-96
2024/01/10 09:23:23;;;;;;;26.70;16.10;;;-1.10;99.70;;;;;;4832563;29;20279;-96
2024/01/10 09:25:49;;;;;;;28.37;16.37;;;-2.20;94.50;;;;;;4848180;29;20612;-96
2024/01/10 09:28:15;;;;;;;26.80;15.17;;;-3.10;93.30;;;;;;4848825;29;20045;-96
2024/01/10 09:30:43;;;;;;;28.83;15.47;;;-2.10;91.50;;;;;;4849278;29;20049;-95
2024/01/10 09:33:09;;;;;;;22.88;13.32;;;-2.20;97.20;;;;;;4849304;29;20117;-94
2024/01/10 09:35:35;;;;;;;24.60;13.70;;;-0.80;96.20;;;;;;4864647;29;20472;-95
2024/01/10 09:38:04;;;;;;;22.57;15.20;;;-2.00;91.20;;;;;;4865042;29;20053;-94
2024/01/10 09:40:30;;;;;;;26.65;13.70;;;-0.40;93.70;;;;;;4850194;29;20138;-94
2024/01/10 09:42:56;;;;;;;22.63;13.27;;;-0.90;93.50;;;;;;4851623;29;20081;-95
2024/01/10 09:45:23;;;;;;;26.30;13.67;;;-0.10;91.70;;;;;;4851613;29;20377;-95
2024/01/10 09:47:53;;;;;;;23.88;14.00;;;-0.70;92.10;;;;;;4852442;29;20416;-95
2024/01/10 09:50:19;;;;;;;26.58;13.60;;;0.20;93.00;;;;;;4850560;29;20058;-96
2024/01/10 09:52:59;;;;;;;25.00;14.17;;;0.10;70.30;;;;;;4852423;29;20056;-96
2024/01/10 09:55:29;;;;;;;31.30;15.40;;;-0.30;83.70;;;;;;4851934;29;20069;-96
2024/01/10 09:57:54;;;;;;;25.60;13.77;;;-0.90;80.40;;;;;;4867758;29;20060;-96
2024/01/10 10:00:23;;;;;;;21.20;12.17;;;-0.50;90.90;;;;;;4852642;29;20139;-96
2024/01/10 10:02:54;;;;;;;27.17;14.15;;;-0.30;75.90;;;;;;4852137;29;20057;-96
2024/01/10 10:05:21;;;;;;;26.58;14.52;;;0.20;90.40;;;;;;4852249;29;20097;-95
2024/01/10 10:07:49;;;;;;;24.20;14.18;;;-0.60;88.10;;;;;;4866813;29;20053;-96
2024/01/10 10:10:16;;;;;;;25.88;13.40;;;-1.30;92.10;;;;;;4866013;29;20049;-96
2024/01/10 10:12:49;;;;;;;20.58;12.00;;;0.10;85.60;;;;;;4836152;29;20049;-95
2024/01/10 10:15:30;;;;;;;22.17;13.57;;;0.30;88.10;;;;;;4850780;29;20068;-96
2024/01/10 10:17:56;;;;;;;23.35;13.07;;;0.60;78.50;;;;;;4851068;29;20054;-96
2024/01/10 10:20:33;;;;;;;24.33;12.40;;;1.60;76.80;;;;;;4851010;29;20056;-95
2024/01/10 10:23:00;;;;;;;29.30;14.50;;;0.70;73.50;;;;;;4836991;29;20054;-95
2024/01/10 10:25:45;;;;;;;;;;;0.80;72.50;;;;;;4850465;29;20049;-95
2024/01/10 10:28:11;;;;;;;23.02;12.43;;;1.00;99.90;;;;;;4849967;29;19977;-96
2024/01/10 10:30:42;;;;;;;20.45;12.88;;;1.10;47.80;;;;;;4865582;29;20056;-95
2024/01/10 10:33:08;;;;;;;20.77;12.73;;;2.80;60.20;;;;;;4850766;29;20084;-95
2024/01/10 10:35:39;;;;;;;24.75;12.45;;;1.50;64.00;;;;;;4849860;29;20252;-96
2024/01/10 10:38:09;;;;;;;22.25;12.85;;;1.40;64.70;;;;;;4836086;29;20053;-96
2024/01/10 10:40:35;;;;;;;23.45;12.98;;;1.40;60.90;;;;;;4865200;29;20065;-96
2024/01/10 10:43:04;;;;;;;23.03;13.03;;;1.70;53.80;;;;;;4835100;29;20108;-96
2024/01/10 10:45:33;;;;;;;23.45;13.63;;;1.90;44.40;;;;;;4850718;29;20050;-96
2024/01/10 10:48:01;;;;;;;19.58;12.32;;;2.50;28.40;;;;;;4850568;29;20045;-96
2024/01/10 10:50:36;;;;;;;19.98;11.63;;;2.90;33.60;;;;;;4850329;29;20488;-96
2024/01/10 10:53:03;;;;;;;19.67;11.75;;;3.10;34.70;;;;;;4850624;29;20096;-96
2024/01/10 10:55:33;;;;;;;20.58;12.13;;;3.60;30.00;;;;;;4849547;29;20068;-96
2024/01/10 10:58:04;;;;;;;20.25;12.40;;;3.70;23.10;;;;;;4850018;29;20057;-96
2024/01/10 11:00:30;;;;;;;20.30;11.82;;;3.80;6.90;;;;;;4865750;29;20053;-96
2024/01/10 11:03:07;;;;;;;18.58;11.15;;;3.90;15.10;;;;;;4851673;29;20045;-96
2024/01/10 11:05:37;;;;;;;20.80;12.25;;;3.80;9.70;;;;;;4838592;29;20108;-96
2024/01/10 11:08:37;;;;;;;16.65;10.02;;;5.10;12.50;;;;;;4874008;29;20050;-96
2024/01/10 11:11:13;;;;;;;18.73;11.40;;;4.30;1.00;;;;;;4870714;29;20063;-96
2024/01/10 11:14:04;;;;;;;20.00;12.00;;;3.40;1.00;;;;;;4850558;29;20192;-96
2024/01/10 11:16:43;;;;;;;18.52;10.93;;;3.30;1.00;;;;;;4848102;29;20086;-96
2024/01/10 11:19:21;;;;;;;18.63;11.85;;;3.40;99.90;;;;;;4847863;29;20056;-95
2024/01/10 11:22:11;;;;;;;19.85;11.98;;;3.40;78.60;;;;;;4846594;29;20082;-94
2024/01/10 11:24:37;;;;;;;19.50;11.32;;;3.40;99.90;;;;;;4846041;29;20140;-93
2024/01/10 11:27:10;;;;;;;17.38;10.65;;;3.50;99.90;;;;;;4861568;29;20137;-94
2024/01/10 11:29:40;;;;;;;21.13;11.27;;;3.40;99.90;;;;;;4845470;29;20057;-93
2024/01/10 11:32:23;;;;;;;19.95;11.43;;;3.70;99.90;;;;;;4845795;29;20089;-92
2024/01/10 11:35:00;;;;;;;19.90;11.77;;;3.80;99.90;;;;;;4846078;29;20403;-92
2024/01/10 11:37:40;;;;;;;19.55;11.15;;;3.80;1.00;;;;;;4845034;29;20144;-91
2024/01/10 11:40:14;;;;;;;16.35;9.98;;;4.10;99.90;;;;;;4854260;29;20583;-91
2024/01/10 11:42:44;;;;;;;17.90;11.73;;;4.30;99.90;;;;;;4811488;29;20054;-91
2024/01/10 11:45:10;;;;;;;20.95;11.73;;;4.20;99.90;;;;;;4811980;29;20137;-91
2024/01/10 11:47:42;;;;;;;20.40;10.97;;;4.10;99.90;;;;;;4841541;29;20137;-90
2024/01/10 11:50:11;;;;;;;17.50;11.45;;;4.00;99.90;;;;;;4811679;29;20458;-90
2024/01/10 11:52:37;;;;;;;16.77;10.68;;;3.80;99.90;;;;;;4826159;29;20053;-90
2024/01/10 11:55:04;;;;;;;18.75;10.77;;;4.30;1.00;;;;;;4827744;29;20054;-90
2024/01/10 11:57:32;;;;;;;16.73;10.65;;;3.50;99.90;;;;;;4825929;29;20065;-89
2024/01/10 12:00:00;;;;;;;15.70;9.82;;;3.30;1.00;;;;;;4826355;29;20057;-89
2024/01/10 12:02:30;;;;;;;17.98;11.55;;;3.10;1.00;;;;;;4841277;29;20061;-90
2024/01/10 12:04:58;;;;;;;18.83;12.65;;;3.00;1.00;;;;;;4826532;29;20054;-88
2024/01/10 12:07:24;;;;;;;16.38;9.48;;;2.90;1.00;;;;;;4826248;29;20056;-89
2024/01/10 12:09:50;;;;;;;18.20;11.15;;;4.10;99.90;;;;;;4827707;29;20614;-89
2024/01/10 12:12:18;;;;;;;20.30;12.37;;;1.70;1.00;;;;;;4844439;29;20045;-88
2024/01/10 12:14:44;;;;;;;22.83;12.23;;;2.90;1.00;;;;;;4859594;29;20049;-88
2024/01/10 12:17:10;;;;;;;18.63;11.53;;;4.00;1.00;;;;;;4844657;29;20061;-88
2024/01/10 12:19:39;;;;;;;18.27;9.60;;;1.90;99.90;;;;;;4843946;29;20060;-89
2024/01/10 12:22:05;;;;;;;17.75;12.00;;;2.90;1.00;;;;;;4845166;29;20049;-88
2024/01/10 12:24:31;;;;;;;17.52;11.02;;;2.70;1.00;;;;;;4844098;29;20053;-89
2024/01/10 12:26:57;;;;;;;20.45;10.45;;;2.70;1.00;;;;;;4843715;29;20057;-88
2024/01/10 12:29:26;;;;;;;21.00;10.60;;;2.80;1.00;;;;;;4859862;29;20056;-88
2024/01/10 12:31:53;;;;;;;16.30;10.18;;;3.90;1.00;;;;;;4843783;29;20100;-88
2024/01/10 12:34:21;;;;;;;17.83;10.48;;;2.60;1.00;;;;;;4844417;29;20132;-88
2024/01/10 12:36:47;;;;;;;16.45;10.32;;;2.60;1.00;;;;;;4829341;29;20053;-88
2024/01/10 12:39:14;;;;;;;16.27;9.90;;;2.40;1.00;;;;;;4844591;29;20049;-88
2024/01/10 12:41:41;;;;;;;16.25;10.73;;;2.70;1.00;;;;;;4844101;29;20064;-89
2024/01/10 12:44:07;;;;;;;15.13;9.73;;;2.50;1.00;;;;;;4844272;29;20061;-88
2024/01/10 12:46:33;;;;;;;15.17;9.90;;;2.60;1.00;;;;;;4835819;29;20139;-91
2024/01/10 12:49:07;;;;;;;15.00;10.27;;;3.80;1.00;;;;;;4826215;29;20397;-88
2024/01/10 12:51:37;;;;;;;14.30;9.40;;;2.60;1.00;;;;;;4811261;29;20042;-94
2024/01/10 12:54:07;;;;;;;14.55;9.60;;;2.50;1.00;;;;;;4811080;29;20069;-89
2024/01/10 12:56:33;;;;;;;14.85;9.63;;;2.50;1.00;;;;;;4810793;29;20057;-93
2024/01/10 12:59:01;;;;;;;15.20;9.87;;;2.30;1.00;;;;;;4841561;29;20053;-89
2024/01/10 13:01:27;;;;;;;14.25;9.90;;;2.60;1.00;;;;;;4826311;29;20042;-89
2024/01/10 13:03:53;;;;;;;12.90;9.17;;;2.60;1.00;;;;;;4825998;29;20681;-87
2024/01/10 13:06:22;;;;;;;15.30;10.17;;;2.40;1.00;;;;;;4826082;29;20050;-87
2024/01/10 13:08:51;;;;;;;17.35;9.57;;;2.60;1.00;;;;;;4827181;29;20448;-87
2024/01/10 13:11:17;;;;;;;15.30;10.60;;;1.70;1.00;;;;;;4827545;29;20046;-87
2024/01/10 13:13:46;;;;;;;16.30;10.43;;;3.80;1.00;;;;;;4844276;29;20086;-88
2024/01/10 13:16:12;;;;;;;14.55;9.82;;;2.70;6.90;;;;;;4845365;29;20049;-87
2024/01/10 13:18:38;;;;;;;16.58;11.18;;;2.60;13.20;;;;;;4845113;29;20106;-89
2024/01/10 13:21:04;;;;;;;15.15;9.35;;;2.90;1.00;;;;;;4844627;29;20050;-88
2024/01/10 13:23:30;;;;;;;15.80;9.00;;;2.70;1.00;;;;;;4845015;29;20065;-88
2024/01/10 13:25:56;;;;;;;16.47;9.33;;;2.80;1.00;;;;;;4844559;29;20623;-88
2024/01/10 13:28:25;;;;;;;15.70;11.00;;;2.80;1.00;;;;;;4846093;29;20140;-88
2024/01/10 13:30:52;;;;;;;14.30;10.00;;;3.00;1.00;;;;;;4844746;29;20068;-89